sensor_id;sensor_type;location;lat;lon;timestamp;temperature;humidity
60860;DHT22;46694;54.382;9.708;2023-11-21T00:00:29;8.60;99.90
60860;DHT22;46694;54.382;9.708;2023-11-21T00:02:55;8.60;99.90
60860;DHT22;46694;54.382;9.708;2023-11-21T00:05:21;8.60;99.90
60860;DHT22;46694;54.382;9.708;2023-11-21T00:07:48;8.60;99.90
60860;DHT22;46694;54.382;9.708;2023-11-21T00:10:14;8.60;99.90
60860;DHT22;46694;54.382;9.708;2023-11-21T00:12:41;8.60;99.90
60860;DHT22;46694;54.382;9.708;2023-11-21T00:15:08;8.50;99.90
60860;DHT22;46694;54.382;9.708;2023-11-21T00:17:37;8.50;99.90
60860;DHT22;46694;54.382;9.708;2023-11-21T00:20:07;8.50;99.90
60860;DHT22;46694;54.382;9.708;2023-11-21T00:22:36;8.50;99.90
60860;DHT22;46694;54.382;9.708;2023-11-21T00:25:02;8.50;99.90
60860;DHT22;46694;54.382;9.708;2023-11-21T00:27:29;8.50;99.90
60860;DHT22;46694;54.382;9.708;2023-11-21T00:29:55;8.40;99.90
60860;DHT22;46694;54.382;9.708;2023-11-21T00:32:21;8.40;99.90
60860;DHT22;46694;54.382;9.708;2023-11-21T00:34:46;8.40;99.90
60860;DHT22;46694;54.382;9.708;2023-11-21T00:37:12;8.40;99.90
60860;DHT22;46694;54.382;9.708;2023-11-21T00:39:38;8.40;99.90
60860;DHT22;46694;54.382;9.708;2023-11-21T00:42:04;8.40;99.90
60860;DHT22;46694;54.382;9.708;2023-11-21T00:44:30;8.40;99.90
60860;DHT22;46694;54.382;9.708;2023-11-21T00:46:56;8.40;99.90
60860;DHT22;46694;54.382;9.708;2023-11-21T00:49:21;8.40;99.90
60860;DHT22;46694;54.382;9.708;2023-11-21T00:51:47;8.30;99.90
60860;DHT22;46694;54.382;9.708;2023-11-21T00:54:13;8.30;99.90
60860;DHT22;46694;54.382;9.708;2023-11-21T00:56:39;8.30;99.90
60860;DHT22;46694;54.382;9.708;2023-11-21T00:59:05;8.30;99.90
60860;DHT22;46694;54.382;9.708;2023-11-21T01:01:32;8.30;99.90
60860;DHT22;46694;54.382;9.708;2023-11-21T01:03:58;8.20;99.90
60860;DHT22;46694;54.382;9.708;2023-11-21T01:06:26;8.20;99.90
60860;DHT22;46694;54.382;9.708;2023-11-21T01:08:52;8.20;99.90
60860;DHT22;46694;54.382;9.708;2023-11-21T01:11:18;8.20;99.90
60860;DHT22;46694;54.382;9.708;2023-11-21T01:13:43;8.20;99.90
60860;DHT22;46694;54.382;9.708;2023-11-21T01:16:10;8.20;99.90
60860;DHT22;46694;54.382;9.708;2023-11-21T01:18:36;8.20;99.90
60860;DHT22;46694;54.382;9.708;2023-11-21T01:21:02;8.20;99.90
60860;DHT22;46694;54.382;9.708;2023-11-21T01:23:27;8.20;99.90
60860;DHT22;46694;54.382;9.708;2023-11-21T01:25:55;8.20;99.90
60860;DHT22;46694;54.382;9.708;2023-11-21T01:28:21;8.20;99.90
60860;DHT22;46694;54.382;9.708;2023-11-21T01:30:47;8.10;99.90
60860;DHT22;46694;54.382;9.708;2023-11-21T01:33:13;8.10;99.90
60860;DHT22;46694;54.382;9.708;2023-11-21T01:35:41;8.10;99.90
60860;DHT22;46694;54.382;9.708;2023-11-21T01:38:07;8.20;99.90
60860;DHT22;46694;54.382;9.708;2023-11-21T01:40:34;8.10;99.90
60860;DHT22;46694;54.382;9.708;2023-11-21T01:43:00;8.10;99.90
60860;DHT22;46694;54.382;9.708;2023-11-21T01:45:27;8.10;99.90
60860;DHT22;46694;54.382;9.708;2023-11-21T01:47:54;8.10;99.90
60860;DHT22;46694;54.382;9.708;2023-11-21T01:50:20;8.10;99.90
60860;DHT22;46694;54.382;9.708;2023-11-21T01:52:48;8.10;99.90
60860;DHT22;46694;54.382;9.708;2023-11-21T01:55:16;8.10;99.90
60860;DHT22;46694;54.382;9.708;2023-11-21T01:57:46;8.10;99.90
60860;DHT22;46694;54.382;9.708;2023-11-21T02:00:12;8.10;99.90
60860;DHT22;46694;54.382;9.708;2023-11-21T02:02:45;8.10;99.90
60860;DHT22;46694;54.382;9.708;2023-11-21T02:05:12;8.10;99.90
60860;DHT22;46694;54.382;9.708;2023-11-21T02:07:41;8.10;99.90
60860;DHT22;46694;54.382;9.708;2023-11-21T02:10:09;8.10;99.90
60860;DHT22;46694;54.382;9.708;2023-11-21T02:12:35;8.10;99.90
60860;DHT22;46694;54.382;9.708;2023-11-21T02:15:04;8.10;99.90
60860;DHT22;46694;54.382;9.708;2023-11-21T02:17:43;8.10;99.90
60860;DHT22;46694;54.382;9.708;2023-11-21T02:20:10;8.10;99.90
60860;DHT22;46694;54.382;9.708;2023-11-21T02:22:41;8.10;99.90
60860;DHT22;46694;54.382;9.708;2023-11-21T02:25:08;8.10;99.90
60860;DHT22;46694;54.382;9.708;2023-11-21T02:27:34;8.10;99.90
60860;DHT22;46694;54.382;9.708;2023-11-21T02:29:59;8.10;99.90
60860;DHT22;46694;54.382;9.708;2023-11-21T02:32:26;8.10;99.90
60860;DHT22;46694;54.382;9.708;2023-11-21T02:34:52;8.10;99.90
60860;DHT22;46694;54.382;9.708;2023-11-21T02:37:21;8.10;99.90
60860;DHT22;46694;54.382;9.708;2023-11-21T02:39:47;8.10;99.90
60860;DHT22;46694;54.382;9.708;2023-11-21T02:42:12;8.10;99.90
60860;DHT22;46694;54.382;9.708;2023-11-21T02:44:38;8.10;99.90
60860;DHT22;46694;54.382;9.708;2023-11-21T02:47:04;8.10;99.90
60860;DHT22;46694;54.382;9.708;2023-11-21T02:49:29;8.10;99.90
60860;DHT22;46694;54.382;9.708;2023-11-21T02:51:56;8.10;99.90
60860;DHT22;46694;54.382;9.708;2023-11-21T02:54:22;8.10;99.90
60860;DHT22;46694;54.382;9.708;2023-11-21T02:56:48;8.00;99.90
60860;DHT22;46694;54.382;9.708;2023-11-21T02:59:15;8.00;99.90
60860;DHT22;46694;54.382;9.708;2023-11-21T03:01:41;8.00;99.90
60860;DHT22;46694;54.382;9.708;2023-11-21T03:04:07;8.00;99.90
60860;DHT22;46694;54.382;9.708;2023-11-21T03:06:33;8.00;99.90
60860;DHT22;46694;54.382;9.708;2023-11-21T03:08:59;8.00;99.90
60860;DHT22;46694;54.382;9.708;2023-11-21T03:11:25;8.00;99.90
60860;DHT22;46694;54.382;9.708;2023-11-21T03:13:51;8.00;99.90
60860;DHT22;46694;54.382;9.708;2023-11-21T03:16:16;8.00;99.90
60860;DHT22;46694;54.382;9.708;2023-11-21T03:18:48;8.00;99.90
60860;DHT22;46694;54.382;9.708;2023-11-21T03:21:14;8.00;99.90
60860;DHT22;46694;54.382;9.708;2023-11-21T03:23:39;8.00;99.90
60860;DHT22;46694;54.382;9.708;2023-11-21T03:26:05;8.00;99.90
60860;DHT22;46694;54.382;9.708;2023-11-21T03:31:55;8.00;99.90
60860;DHT22;46694;54.382;9.708;2023-11-21T03:34:26;8.00;99.90
60860;DHT22;46694;54.382;9.708;2023-11-21T03:36:52;8.00;99.90
60860;DHT22;46694;54.382;9.708;2023-11-21T03:39:22;8.00;99.90
60860;DHT22;46694;54.382;9.708;2023-11-21T03:41:48;8.00;99.90
60860;DHT22;46694;54.382;9.708;2023-11-21T03:44:14;8.00;99.90
60860;DHT22;46694;54.382;9.708;2023-11-21T03:46:39;8.00;99.90
60860;DHT22;46694;54.382;9.708;2023-11-21T03:49:05;8.00;99.90
60860;DHT22;46694;54.382;9.708;2023-11-21T03:51:31;8.00;99.90
60860;DHT22;46694;54.382;9.708;2023-11-21T03:53:56;8.00;99.90
60860;DHT22;46694;54.382;9.708;2023-11-21T03:56:22;8.00;99.90
60860;DHT22;46694;54.382;9.708;2023-11-21T03:58:48;8.00;99.90
60860;DHT22;46694;54.382;9.708;2023-11-21T04:01:24;7.90;99.90
60860;DHT22;46694;54.382;9.708;2023-11-21T04:03:50;7.90;99.90
60860;DHT22;46694;54.382;9.708;2023-11-21T04:06:17;7.90;99.90
60860;DHT22;46694;54.382;9.708;2023-11-21T04:08:44;7.80;99.90
60860;DHT22;46694;54.382;9.708;2023-11-21T04:11:10;7.80;99.90
60860;DHT22;46694;54.382;9.708;2023-11-21T04:13:40;7.80;99.90
60860;DHT22;46694;54.382;9.708;2023-11-21T04:16:07;7.80;99.90
60860;DHT22;46694;54.382;9.708;2023-11-21T04:18:34;7.80;99.90
60860;DHT22;46694;54.382;9.708;2023-11-21T04:21:00;7.80;99.90
60860;DHT22;46694;54.382;9.708;2023-11-21T04:23:53;7.70;99.90
60860;DHT22;46694;54.382;9.708;2023-11-21T04:26:19;7.70;99.90
60860;DHT22;46694;54.382;9.708;2023-11-21T04:28:45;7.70;99.90
60860;DHT22;46694;54.382;9.708;2023-11-21T04:31:10;7.70;99.90
60860;DHT22;46694;54.382;9.708;2023-11-21T04:33:36;7.70;99.90
60860;DHT22;46694;54.382;9.708;2023-11-21T04:36:02;7.70;99.90
60860;DHT22;46694;54.382;9.708;2023-11-21T04:38:27;7.70;99.90
60860;DHT22;46694;54.382;9.708;2023-11-21T04:40:53;7.70;99.90
60860;DHT22;46694;54.382;9.708;2023-11-21T04:43:19;7.70;99.90
60860;DHT22;46694;54.382;9.708;2023-11-21T04:45:44;7.70;99.90
60860;DHT22;46694;54.382;9.708;2023-11-21T04:48:10;7.70;99.90
60860;DHT22;46694;54.382;9.708;2023-11-21T04:50:36;7.70;99.90
60860;DHT22;46694;54.382;9.708;2023-11-21T04:53:01;7.70;99.90
60860;DHT22;46694;54.382;9.708;2023-11-21T04:55:27;7.70;99.90
60860;DHT22;46694;54.382;9.708;2023-11-21T04:57:54;7.60;99.90
60860;DHT22;46694;54.382;9.708;2023-11-21T05:00:19;7.70;99.90
60860;DHT22;46694;54.382;9.708;2023-11-21T05:02:46;7.60;99.90
60860;DHT22;46694;54.382;9.708;2023-11-21T05:05:12;7.70;99.90
60860;DHT22;46694;54.382;9.708;2023-11-21T05:07:39;7.70;99.90
60860;DHT22;46694;54.382;9.708;2023-11-21T05:10:06;7.70;99.90
60860;DHT22;46694;54.382;9.708;2023-11-21T05:12:36;7.70;99.90
60860;DHT22;46694;54.382;9.708;2023-11-21T05:15:06;7.70;99.90
60860;DHT22;46694;54.382;9.708;2023-11-21T05:17:36;7.70;99.90
60860;DHT22;46694;54.382;9.708;2023-11-21T05:20:03;7.70;99.90
60860;DHT22;46694;54.382;9.708;2023-11-21T05:22:30;7.60;99.90
60860;DHT22;46694;54.382;9.708;2023-11-21T05:24:55;7.60;99.90
60860;DHT22;46694;54.382;9.708;2023-11-21T05:27:21;7.60;99.90
60860;DHT22;46694;54.382;9.708;2023-11-21T05:29:47;7.70;99.90
60860;DHT22;46694;54.382;9.708;2023-11-21T05:32:12;7.70;99.90
60860;DHT22;46694;54.382;9.708;2023-11-21T05:34:38;7.60;99.90
60860;DHT22;46694;54.382;9.708;2023-11-21T05:37:04;7.60;99.90
60860;DHT22;46694;54.382;9.708;2023-11-21T05:39:31;7.60;99.90
60860;DHT22;46694;54.382;9.708;2023-11-21T05:41:57;7.60;99.90
60860;DHT22;46694;54.382;9.708;2023-11-21T05:44:23;7.60;99.90
60860;DHT22;46694;54.382;9.708;2023-11-21T05:46:49;7.60;99.90
60860;DHT22;46694;54.382;9.708;2023-11-21T05:49:15;7.60;99.90
60860;DHT22;46694;54.382;9.708;2023-11-21T05:51:42;7.60;99.90
60860;DHT22;46694;54.382;9.708;2023-11-21T05:54:07;7.60;99.90
60860;DHT22;46694;54.382;9.708;2023-11-21T05:56:33;7.60;99.90
60860;DHT22;46694;54.382;9.708;2023-11-21T05:58:59;7.60;99.90
60860;DHT22;46694;54.382;9.708;2023-11-21T06:01:26;7.60;99.90
60860;DHT22;46694;54.382;9.708;2023-11-21T06:03:54;7.60;99.90
60860;DHT22;46694;54.382;9.708;2023-11-21T06:06:21;7.60;99.90
60860;DHT22;46694;54.382;9.708;2023-11-21T06:08:54;7.60;99.90
60860;DHT22;46694;54.382;9.708;2023-11-21T06:11:19;7.60;99.90
60860;DHT22;46694;54.382;9.708;2023-11-21T06:13:45;7.60;99.90
60860;DHT22;46694;54.382;9.708;2023-11-21T06:16:11;7.50;99.90
60860;DHT22;46694;54.382;9.708;2023-11-21T06:18:40;7.50;99.90
60860;DHT22;46694;54.382;9.708;2023-11-21T06:21:06;7.50;99.90
60860;DHT22;46694;54.382;9.708;2023-11-21T06:23:34;7.50;99.90
60860;DHT22;46694;54.382;9.708;2023-11-21T06:26:00;7.50;99.90
60860;DHT22;46694;54.382;9.708;2023-11-21T06:28:26;7.50;99.90
60860;DHT22;46694;54.382;9.708;2023-11-21T06:30:51;7.50;99.90
60860;DHT22;46694;54.382;9.708;2023-11-21T06:33:18;7.50;99.90
60860;DHT22;46694;54.382;9.708;2023-11-21T06:35:44;7.50;99.90
60860;DHT22;46694;54.382;9.708;2023-11-21T06:38:10;7.50;99.90
60860;DHT22;46694;54.382;9.708;2023-11-21T06:40:36;7.50;99.90
60860;DHT22;46694;54.382;9.708;2023-11-21T06:43:02;7.50;99.90
60860;DHT22;46694;54.382;9.708;2023-11-21T06:45:27;7.50;99.90
60860;DHT22;46694;54.382;9.708;2023-11-21T06:47:53;7.50;99.90
60860;DHT22;46694;54.382;9.708;2023-11-21T06:50:19;7.50;99.90
60860;DHT22;46694;54.382;9.708;2023-11-21T06:52:45;7.50;99.90
60860;DHT22;46694;54.382;9.708;2023-11-21T06:55:11;7.50;99.90
60860;DHT22;46694;54.382;9.708;2023-11-21T06:57:37;7.50;99.90
60860;DHT22;46694;54.382;9.708;2023-11-21T07:00:04;7.40;99.90
60860;DHT22;46694;54.382;9.708;2023-11-21T07:02:30;7.40;99.90
60860;DHT22;46694;54.382;9.708;2023-11-21T07:04:56;7.40;99.90
60860;DHT22;46694;54.382;9.708;2023-11-21T07:07:22;7.50;99.90
60860;DHT22;46694;54.382;9.708;2023-11-21T07:09:47;7.50;99.90
60860;DHT22;46694;54.382;9.708;2023-11-21T07:12:14;7.40;99.90
60860;DHT22;46694;54.382;9.708;2023-11-21T07:14:40;7.40;99.90
60860;DHT22;46694;54.382;9.708;2023-11-21T07:17:09;7.40;99.90
60860;DHT22;46694;54.382;9.708;2023-11-21T07:19:34;7.40;99.90
60860;DHT22;46694;54.382;9.708;2023-11-21T07:22:01;7.40;99.90
60860;DHT22;46694;54.382;9.708;2023-11-21T07:24:26;7.40;99.90
60860;DHT22;46694;54.382;9.708;2023-11-21T07:26:52;7.40;99.90
60860;DHT22;46694;54.382;9.708;2023-11-21T07:29:23;7.40;99.90
60860;DHT22;46694;54.382;9.708;2023-11-21T07:31:51;7.40;99.90
60860;DHT22;46694;54.382;9.708;2023-11-21T07:34:20;7.40;99.90
60860;DHT22;46694;54.382;9.708;2023-11-21T07:36:46;7.40;99.90
60860;DHT22;46694;54.382;9.708;2023-11-21T07:39:12;7.40;99.90
60860;DHT22;46694;54.382;9.708;2023-11-21T07:41:38;7.40;99.90
60860;DHT22;46694;54.382;9.708;2023-11-21T07:44:10;7.40;99.90
60860;DHT22;46694;54.382;9.708;2023-11-21T07:46:36;7.40;99.90
60860;DHT22;46694;54.382;9.708;2023-11-21T07:49:02;7.40;99.90
60860;DHT22;46694;54.382;9.708;2023-11-21T07:51:27;7.40;99.90
60860;DHT22;46694;54.382;9.708;2023-11-21T07:53:54;7.40;99.90
60860;DHT22;46694;54.382;9.708;2023-11-21T07:56:20;7.40;99.90
60860;DHT22;46694;54.382;9.708;2023-11-21T07:58:45;7.40;99.90
60860;DHT22;46694;54.382;9.708;2023-11-21T08:01:11;7.40;99.90
60860;DHT22;46694;54.382;9.708;2023-11-21T08:03:37;7.50;99.90
60860;DHT22;46694;54.382;9.708;2023-11-21T08:06:03;7.50;99.90
60860;DHT22;46694;54.382;9.708;2023-11-21T08:08:31;7.50;99.90
60860;DHT22;46694;54.382;9.708;2023-11-21T08:17:43;7.60;99.90
60860;DHT22;46694;54.382;9.708;2023-11-21T08:20:09;7.50;99.90
60860;DHT22;46694;54.382;9.708;2023-11-21T08:22:36;7.60;99.90
60860;DHT22;46694;54.382;9.708;2023-11-21T08:25:02;7.60;99.90
60860;DHT22;46694;54.382;9.708;2023-11-21T08:27:32;7.60;99.90
60860;DHT22;46694;54.382;9.708;2023-11-21T08:29:57;7.60;99.90
60860;DHT22;46694;54.382;9.708;2023-11-21T08:32:23;7.60;99.90
60860;DHT22;46694;54.382;9.708;2023-11-21T08:34:49;7.60;99.90
60860;DHT22;46694;54.382;9.708;2023-11-21T08:37:16;7.60;99.90
60860;DHT22;46694;54.382;9.708;2023-11-21T08:39:44;7.60;99.90
60860;DHT22;46694;54.382;9.708;2023-11-21T08:42:10;7.60;99.90
60860;DHT22;46694;54.382;9.708;2023-11-21T08:44:35;7.70;99.90
60860;DHT22;46694;54.382;9.708;2023-11-21T08:47:01;7.70;99.90
60860;DHT22;46694;54.382;9.708;2023-11-21T08:49:27;7.70;99.90
60860;DHT22;46694;54.382;9.708;2023-11-21T08:51:54;7.70;99.90
60860;DHT22;46694;54.382;9.708;2023-11-21T08:54:25;7.70;99.90
60860;DHT22;46694;54.382;9.708;2023-11-21T08:56:52;7.70;99.90
60860;DHT22;46694;54.382;9.708;2023-11-21T08:59:18;7.60;99.90
60860;DHT22;46694;54.382;9.708;2023-11-21T09:01:45;7.70;99.90
60860;DHT22;46694;54.382;9.708;2023-11-21T09:04:12;7.70;99.90
60860;DHT22;46694;54.382;9.708;2023-11-21T09:06:39;7.70;99.90
60860;DHT22;46694;54.382;9.708;2023-11-21T09:09:05;7.70;99.90
60860;DHT22;46694;54.382;9.708;2023-11-21T09:11:32;7.70;99.90
60860;DHT22;46694;54.382;9.708;2023-11-21T09:14:00;7.70;99.90
60860;DHT22;46694;54.382;9.708;2023-11-21T09:16:26;7.70;99.90
60860;DHT22;46694;54.382;9.708;2023-11-21T09:18:51;7.70;99.90
60860;DHT22;46694;54.382;9.708;2023-11-21T09:21:17;7.70;99.90
60860;DHT22;46694;54.382;9.708;2023-11-21T09:23:44;7.70;99.90
60860;DHT22;46694;54.382;9.708;2023-11-21T09:26:10;7.70;99.90
60860;DHT22;46694;54.382;9.708;2023-11-21T09:28:36;7.70;99.90
60860;DHT22;46694;54.382;9.708;2023-11-21T09:31:08;7.70;99.90
60860;DHT22;46694;54.382;9.708;2023-11-21T09:33:35;7.70;99.90
60860;DHT22;46694;54.382;9.708;2023-11-21T09:36:00;7.80;99.90
60860;DHT22;46694;54.382;9.708;2023-11-21T09:38:30;7.80;99.90
60860;DHT22;46694;54.382;9.708;2023-11-21T09:40:56;7.80;99.90
60860;DHT22;46694;54.382;9.708;2023-11-21T09:43:25;7.80;99.90
60860;DHT22;46694;54.382;9.708;2023-11-21T09:46:00;7.80;99.90
60860;DHT22;46694;54.382;9.708;2023-11-21T09:48:27;7.80;99.90
60860;DHT22;46694;54.382;9.708;2023-11-21T09:50:54;7.90;99.90
60860;DHT22;46694;54.382;9.708;2023-11-21T09:53:21;7.90;99.90
60860;DHT22;46694;54.382;9.708;2023-11-21T09:55:51;7.90;99.90
60860;DHT22;46694;54.382;9.708;2023-11-21T09:58:18;7.90;99.90
60860;DHT22;46694;54.382;9.708;2023-11-21T10:00:50;7.90;99.90
60860;DHT22;46694;54.382;9.708;2023-11-21T10:03:18;7.90;99.90
60860;DHT22;46694;54.382;9.708;2023-11-21T10:05:45;7.90;99.90
60860;DHT22;46694;54.382;9.708;2023-11-21T10:08:14;8.00;99.90
60860;DHT22;46694;54.382;9.708;2023-11-21T10:10:44;8.00;99.90
60860;DHT22;46694;54.382;9.708;2023-11-21T10:13:12;8.00;99.90
60860;DHT22;46694;54.382;9.708;2023-11-21T10:15:38;8.10;99.90
60860;DHT22;46694;54.382;9.708;2023-11-21T10:18:07;8.10;99.90
60860;DHT22;46694;54.382;9.708;2023-11-21T10:20:34;8.10;99.90
60860;DHT22;46694;54.382;9.708;2023-11-21T10:23:00;8.10;99.90
60860;DHT22;46694;54.382;9.708;2023-11-21T10:25:30;8.20;99.90
60860;DHT22;46694;54.382;9.708;2023-11-21T10:28:01;8.20;99.90
60860;DHT22;46694;54.382;9.708;2023-11-21T10:30:34;8.20;99.90
60860;DHT22;46694;54.382;9.708;2023-11-21T10:33:07;8.20;99.90
60860;DHT22;46694;54.382;9.708;2023-11-21T10:35:46;8.20;99.90
60860;DHT22;46694;54.382;9.708;2023-11-21T10:38:14;8.20;99.90
60860;DHT22;46694;54.382;9.708;2023-11-21T10:40:43;8.20;99.90
60860;DHT22;46694;54.382;9.708;2023-11-21T10:43:11;8.20;99.90
60860;DHT22;46694;54.382;9.708;2023-11-21T10:45:41;8.20;99.90
60860;DHT22;46694;54.382;9.708;2023-11-21T10:48:15;8.20;99.90
60860;DHT22;46694;54.382;9.708;2023-11-21T10:50:41;8.20;99.90
60860;DHT22;46694;54.382;9.708;2023-11-21T10:53:07;8.20;99.90
60860;DHT22;46694;54.382;9.708;2023-11-21T10:55:34;8.20;99.90
60860;DHT22;46694;54.382;9.708;2023-11-21T10:58:02;8.30;99.90
60860;DHT22;46694;54.382;9.708;2023-11-21T11:00:29;8.30;99.90
60860;DHT22;46694;54.382;9.708;2023-11-21T11:02:55;8.30;99.90
60860;DHT22;46694;54.382;9.708;2023-11-21T11:05:23;8.20;99.90
60860;DHT22;46694;54.382;9.708;2023-11-21T11:07:58;8.30;99.90
60860;DHT22;46694;54.382;9.708;2023-11-21T11:10:27;8.30;99.90
60860;DHT22;46694;54.382;9.708;2023-11-21T11:12:55;8.30;99.90
60860;DHT22;46694;54.382;9.708;2023-11-21T11:15:21;8.30;99.90
60860;DHT22;46694;54.382;9.708;2023-11-21T11:17:48;8.40;99.90
60860;DHT22;46694;54.382;9.708;2023-11-21T11:20:16;8.40;99.90
60860;DHT22;46694;54.382;9.708;2023-11-21T11:22:57;8.40;99.90
60860;DHT22;46694;54.382;9.708;2023-11-21T11:37:03;8.20;99.90
60860;DHT22;46694;54.382;9.708;2023-11-21T11:39:40;8.10;99.90
60860;DHT22;46694;54.382;9.708;2023-11-21T11:42:13;8.10;99.90
60860;DHT22;46694;54.382;9.708;2023-11-21T11:47:27;7.70;99.90
60860;DHT22;46694;54.382;9.708;2023-11-21T11:50:12;7.60;99.90
60860;DHT22;46694;54.382;9.708;2023-11-21T11:52:48;7.50;99.90
60860;DHT22;46694;54.382;9.708;2023-11-21T11:55:16;7.50;99.90
60860;DHT22;46694;54.382;9.708;2023-11-21T11:57:51;7.50;99.90
60860;DHT22;46694;54.382;9.708;2023-11-21T12:02:56;7.50;99.90
60860;DHT22;46694;54.382;9.708;2023-11-21T12:05:27;7.40;99.90
60860;DHT22;46694;54.382;9.708;2023-11-21T12:07:55;7.40;99.90
60860;DHT22;46694;54.382;9.708;2023-11-21T12:11:08;7.30;99.90
60860;DHT22;46694;54.382;9.708;2023-11-21T12:13:29;7.20;99.90
60860;DHT22;46694;54.382;9.708;2023-11-21T12:15:55;7.10;99.90
60860;DHT22;46694;54.382;9.708;2023-11-21T12:18:21;7.10;99.90
60860;DHT22;46694;54.382;9.708;2023-11-21T12:20:47;7.10;99.90
60860;DHT22;46694;54.382;9.708;2023-11-21T12:23:15;7.00;99.90
60860;DHT22;46694;54.382;9.708;2023-11-21T12:25:42;7.10;99.90
60860;DHT22;46694;54.382;9.708;2023-11-21T12:28:08;7.10;99.90
60860;DHT22;46694;54.382;9.708;2023-11-21T12:30:35;7.10;99.90
60860;DHT22;46694;54.382;9.708;2023-11-21T12:33:02;7.10;99.90
60860;DHT22;46694;54.382;9.708;2023-11-21T12:35:30;7.10;99.90
60860;DHT22;46694;54.382;9.708;2023-11-21T12:37:59;7.10;99.90
60860;DHT22;46694;54.382;9.708;2023-11-21T12:40:25;7.00;99.90
60860;DHT22;46694;54.382;9.708;2023-11-21T12:42:54;7.00;99.90
60860;DHT22;46694;54.382;9.708;2023-11-21T12:45:23;7.00;99.90
60860;DHT22;46694;54.382;9.708;2023-11-21T12:47:55;7.00;99.90
60860;DHT22;46694;54.382;9.708;2023-11-21T12:50:28;7.00;99.90
60860;DHT22;46694;54.382;9.708;2023-11-21T12:53:00;7.00;99.90
60860;DHT22;46694;54.382;9.708;2023-11-21T12:55:25;7.00;99.90
60860;DHT22;46694;54.382;9.708;2023-11-21T12:57:55;7.10;99.90
60860;DHT22;46694;54.382;9.708;2023-11-21T13:00:47;7.10;99.90
60860;DHT22;46694;54.382;9.708;2023-11-21T13:03:14;7.10;99.90
60860;DHT22;46694;54.382;9.708;2023-11-21T13:05:50;7.20;99.90
60860;DHT22;46694;54.382;9.708;2023-11-21T13:08:17;7.10;99.90
60860;DHT22;46694;54.382;9.708;2023-11-21T13:10:50;7.20;99.90
60860;DHT22;46694;54.382;9.708;2023-11-21T13:13:16;7.10;99.90
60860;DHT22;46694;54.382;9.708;2023-11-21T13:15:52;7.10;99.90
60860;DHT22;46694;54.382;9.708;2023-11-21T13:18:18;7.10;99.90
60860;DHT22;46694;54.382;9.708;2023-11-21T13:20:47;7.10;99.90
60860;DHT22;46694;54.382;9.708;2023-11-21T13:23:12;7.10;99.90
60860;DHT22;46694;54.382;9.708;2023-11-21T13:25:39;7.20;99.90
60860;DHT22;46694;54.382;9.708;2023-11-21T13:28:07;7.20;99.90
60860;DHT22;46694;54.382;9.708;2023-11-21T13:30:33;7.30;99.90
60860;DHT22;46694;54.382;9.708;2023-11-21T13:33:02;7.30;99.90
60860;DHT22;46694;54.382;9.708;2023-11-21T13:35:32;7.40;99.90
60860;DHT22;46694;54.382;9.708;2023-11-21T13:38:09;7.50;99.90
60860;DHT22;46694;54.382;9.708;2023-11-21T13:40:36;7.50;99.90
60860;DHT22;46694;54.382;9.708;2023-11-21T13:43:22;7.40;99.90
60860;DHT22;46694;54.382;9.708;2023-11-21T13:45:50;7.20;99.90
60860;DHT22;46694;54.382;9.708;2023-11-21T13:48:29;7.10;99.90
60860;DHT22;46694;54.382;9.708;2023-11-21T13:51:03;7.00;99.90
60860;DHT22;46694;54.382;9.708;2023-11-21T13:53:49;6.90;99.90
60860;DHT22;46694;54.382;9.708;2023-11-21T13:56:18;6.80;99.90
60860;DHT22;46694;54.382;9.708;2023-11-21T13:58:53;6.70;99.90
60860;DHT22;46694;54.382;9.708;2023-11-21T14:01:23;6.70;99.90
60860;DHT22;46694;54.382;9.708;2023-11-21T14:03:49;6.70;99.90
60860;DHT22;46694;54.382;9.708;2023-11-21T14:06:22;6.70;99.90
60860;DHT22;46694;54.382;9.708;2023-11-21T14:08:52;6.70;99.90
60860;DHT22;46694;54.382;9.708;2023-11-21T14:11:22;6.70;99.90
60860;DHT22;46694;54.382;9.708;2023-11-21T14:13:47;6.70;99.90
60860;DHT22;46694;54.382;9.708;2023-11-21T14:16:14;6.70;99.90
60860;DHT22;46694;54.382;9.708;2023-11-21T14:18:42;6.70;99.90
60860;DHT22;46694;54.382;9.708;2023-11-21T14:21:21;6.70;99.90
60860;DHT22;46694;54.382;9.708;2023-11-21T14:23:47;6.70;99.90
60860;DHT22;46694;54.382;9.708;2023-11-21T14:26:13;6.70;99.90
60860;DHT22;46694;54.382;9.708;2023-11-21T14:28:41;6.70;99.90
60860;DHT22;46694;54.382;9.708;2023-11-21T14:31:07;6.70;99.90
60860;DHT22;46694;54.382;9.708;2023-11-21T14:33:33;6.70;99.90
60860;DHT22;46694;54.382;9.708;2023-11-21T14:35:59;6.60;99.90
60860;DHT22;46694;54.382;9.708;2023-11-21T14:38:25;6.60;99.90
60860;DHT22;46694;54.382;9.708;2023-11-21T14:40:50;6.60;99.90
60860;DHT22;46694;54.382;9.708;2023-11-21T14:43:16;6.60;99.90
60860;DHT22;46694;54.382;9.708;2023-11-21T14:45:44;6.50;99.90
60860;DHT22;46694;54.382;9.708;2023-11-21T14:48:10;6.50;99.90
60860;DHT22;46694;54.382;9.708;2023-11-21T14:50:42;6.40;99.90
60860;DHT22;46694;54.382;9.708;2023-11-21T14:53:09;6.30;99.90
60860;DHT22;46694;54.382;9.708;2023-11-21T14:55:35;6.40;99.90
60860;DHT22;46694;54.382;9.708;2023-11-21T14:58:20;6.50;99.90
60860;DHT22;46694;54.382;9.708;2023-11-21T15:01:00;6.50;99.90
60860;DHT22;46694;54.382;9.708;2023-11-21T15:03:27;6.50;99.90
60860;DHT22;46694;54.382;9.708;2023-11-21T15:06:03;6.50;99.90
60860;DHT22;46694;54.382;9.708;2023-11-21T15:08:49;6.50;99.90
60860;DHT22;46694;54.382;9.708;2023-11-21T15:11:21;6.50;99.90
60860;DHT22;46694;54.382;9.708;2023-11-21T15:13:53;6.40;99.90
60860;DHT22;46694;54.382;9.708;2023-11-21T15:16:19;6.40;99.90
60860;DHT22;46694;54.382;9.708;2023-11-21T15:18:45;6.30;99.90
60860;DHT22;46694;54.382;9.708;2023-11-21T15:21:11;6.30;99.90
60860;DHT22;46694;54.382;9.708;2023-11-21T15:23:38;6.20;99.90
60860;DHT22;46694;54.382;9.708;2023-11-21T15:26:04;6.20;99.90
60860;DHT22;46694;54.382;9.708;2023-11-21T15:28:30;6.20;99.90
60860;DHT22;46694;54.382;9.708;2023-11-21T15:30:58;6.10;99.90
60860;DHT22;46694;54.382;9.708;2023-11-21T15:33:23;6.10;99.90
60860;DHT22;46694;54.382;9.708;2023-11-21T15:35:49;6.10;99.90
60860;DHT22;46694;54.382;9.708;2023-11-21T15:38:15;6.10;99.90
60860;DHT22;46694;54.382;9.708;2023-11-21T15:40:41;6.10;99.90
60860;DHT22;46694;54.382;9.708;2023-11-21T15:43:10;6.00;99.90
60860;DHT22;46694;54.382;9.708;2023-11-21T15:45:37;6.00;99.90
60860;DHT22;46694;54.382;9.708;2023-11-21T15:48:03;6.00;99.90
60860;DHT22;46694;54.382;9.708;2023-11-21T15:50:31;6.00;99.90
60860;DHT22;46694;54.382;9.708;2023-11-21T15:52:57;5.90;99.90
60860;DHT22;46694;54.382;9.708;2023-11-21T15:55:24;5.90;99.90
60860;DHT22;46694;54.382;9.708;2023-11-21T15:57:49;5.90;99.90
60860;DHT22;46694;54.382;9.708;2023-11-21T16:00:15;5.80;99.90
60860;DHT22;46694;54.382;9.708;2023-11-21T16:02:45;5.80;99.90
60860;DHT22;46694;54.382;9.708;2023-11-21T16:05:11;5.80;99.90
60860;DHT22;46694;54.382;9.708;2023-11-21T16:07:42;5.70;99.90
60860;DHT22;46694;54.382;9.708;2023-11-21T16:10:10;5.70;99.90
60860;DHT22;46694;54.382;9.708;2023-11-21T16:12:43;5.70;99.90
60860;DHT22;46694;54.382;9.708;2023-11-21T16:15:09;5.60;99.90